Time;durP1;ratioP1;P1;durP2;ratioP2;P2;SDS_P1;SDS_P2;PMS_P1;PMS_P2;Temp;Humidity;BMP_temperature;BMP_pressure;BME280_temperature;BME280_humidity;BME280_pressure;Samples;Min_cycle;Max_cycle;Signal;HPM_P1;HPM_P2
2023/02/07 00:00:18;;;;;;;3.90;2.80;;;;;;;;;;5049960;28;20477;-67
2023/02/07 00:02:46;;;;;;;4.90;3.07;;;;;;;;;;5050683;28;20463;-67
2023/02/07 00:05:14;;;;;;;6.80;3.37;;;;;;;;;;5049694;28;20445;-66
2023/02/07 00:07:41;;;;;;;6.00;2.80;;;;;;;;;;5050417;28;20457;-67
2023/02/07 00:10:11;;;;;;;4.27;2.27;;;;;;;;;;5050795;28;20476;-66
2023/02/07 00:12:38;;;;;;;5.53;3.70;;;;;;;;;;5049863;28;20507;-66
2023/02/07 00:15:05;;;;;;;5.93;3.23;;;;;;;;;;5049539;28;20449;-66
2023/02/07 00:17:33;;;;;;;3.00;2.80;;;;;;;;;;5049657;28;20536;-66
2023/02/07 00:20:00;;;;;;;3.77;2.60;;;;;;;;;;5050173;28;20476;-67
2023/02/07 00:22:27;;;;;;;4.80;2.60;;;;;;;;;;5049725;28;20473;-68
2023/02/07 00:24:54;;;;;;;4.10;1.93;;;;;;;;;;5049570;28;20453;-66
2023/02/07 00:27:22;;;;;;;3.93;3.17;;;;;;;;;;5049607;28;20446;-66
2023/02/07 00:29:50;;;;;;;4.90;3.30;;;;;;;;;;5050135;28;20472;-66
2023/02/07 00:32:17;;;;;;;5.93;2.90;;;;;;;;;;5051725;28;20454;-66
2023/02/07 00:34:46;;;;;;;3.80;3.03;;;;;;;;;;5053942;28;20446;-66
2023/02/07 00:37:13;;;;;;;4.00;2.40;;;;;;;;;;5053396;28;20442;-66
2023/02/07 00:39:40;;;;;;;6.07;3.93;;;;;;;;;;5053991;28;20452;-66
2023/02/07 00:42:07;;;;;;;2.83;2.60;;;;;;;;;;5054377;28;20805;-66
2023/02/07 00:44:36;;;;;;;6.07;4.37;;;;;;;;;;5053032;28;20472;-66
2023/02/07 00:47:03;;;;;;;5.30;3.30;;;;;;;;;;5054315;28;20454;-66
2023/02/07 00:49:30;;;;;;;5.00;3.10;;;;;;;;;;5052864;28;20458;-66
2023/02/07 00:51:57;;;;;;;5.00;2.80;;;;;;;;;;5041660;28;20574;-66
2023/02/07 00:54:24;;;;;;;2.90;2.57;;;;;;;;;;5053561;28;20446;-66
2023/02/07 00:56:51;;;;;;;6.13;3.40;;;;;;;;;;5053849;28;20456;-66
2023/02/07 00:59:18;;;;;;;3.70;2.80;;;;;;;;;;5053360;28;20442;-66
2023/02/07 01:01:47;;;;;;;3.90;3.30;;;;;;;;;;5053857;28;20461;-66
2023/02/07 01:04:14;;;;;;;6.30;2.57;;;;;;;;;;5053433;28;20549;-66
2023/02/07 01:06:41;;;;;;;4.37;2.47;;;;;;;;;;5053700;28;20526;-66
2023/02/07 01:09:08;;;;;;;9.20;3.80;;;;;;;;;;5053307;28;20484;-66
2023/02/07 01:11:35;;;;;;;2.00;1.70;;;;;;;;;;5052901;28;21369;-66
2023/02/07 01:14:03;;;;;;;6.03;5.10;;;;;;;;;;5053073;28;20454;-66
2023/02/07 01:16:31;;;;;;;4.60;3.53;;;;;;;;;;5052382;28;20450;-66
2023/02/07 01:19:01;;;;;;;4.17;2.80;;;;;;;;;;5053530;28;20446;-66
2023/02/07 01:21:28;;;;;;;4.93;3.60;;;;;;;;;;5052505;28;20446;-66
2023/02/07 01:23:55;;;;;;;3.80;3.47;;;;;;;;;;5053235;28;20454;-66
2023/02/07 01:26:23;;;;;;;3.50;2.90;;;;;;;;;;5052780;28;20456;-66
2023/02/07 01:28:50;;;;;;;4.70;3.93;;;;;;;;;;5053066;28;20450;-66
2023/02/07 01:31:17;;;;;;;5.13;3.40;;;;;;;;;;5052965;28;20847;-66
2023/02/07 01:33:44;;;;;;;5.00;3.47;;;;;;;;;;5053500;28;20548;-67
2023/02/07 01:36:15;;;;;;;8.37;3.40;;;;;;;;;;5052902;28;20529;-67
2023/02/07 01:38:42;;;;;;;7.10;2.93;;;;;;;;;;5053763;28;20811;-67
2023/02/07 01:41:10;;;;;;;8.17;2.73;;;;;;;;;;5053536;28;20532;-67
2023/02/07 01:43:52;;;;;;;6.20;3.73;;;;;;;;;;5052024;28;20476;-66
2023/02/07 01:46:19;;;;;;;5.67;3.20;;;;;;;;;;5052328;28;20453;-66
2023/02/07 01:48:46;;;;;;;4.50;3.83;;;;;;;;;;5053015;28;20529;-66
2023/02/07 01:51:15;;;;;;;4.10;2.83;;;;;;;;;;5052182;28;20946;-66
2023/02/07 01:53:42;;;;;;;7.13;3.80;;;;;;;;;;5052414;28;20818;-67
2023/02/07 01:56:10;;;;;;;4.57;3.40;;;;;;;;;;5052630;28;20446;-67
2023/02/07 01:58:38;;;;;;;3.90;3.30;;;;;;;;;;5052540;28;20445;-67
2023/02/07 02:01:08;;;;;;;5.90;4.03;;;;;;;;;;5052407;28;20445;-67
2023/02/07 02:03:36;;;;;;;6.37;4.77;;;;;;;;;;5052381;28;20450;-66
2023/02/07 02:06:03;;;;;;;6.07;3.90;;;;;;;;;;5052056;28;20973;-67
2023/02/07 02:08:31;;;;;;;7.73;3.97;;;;;;;;;;5051902;28;20839;-66
2023/02/07 02:11:03;;;;;;;5.33;4.00;;;;;;;;;;5052037;28;20482;-66
2023/02/07 02:13:33;;;;;;;7.37;4.40;;;;;;;;;;5051357;28;20457;-67
2023/02/07 02:16:05;;;;;;;6.93;4.13;;;;;;;;;;5051890;28;20458;-67
2023/02/07 02:18:39;;;;;;;6.43;5.03;;;;;;;;;;5051383;28;20443;-68
2023/02/07 02:21:24;;;;;;;8.17;4.47;;;;;;;;;;5041172;28;20763;-66
2023/02/07 02:24:04;;;;;;;6.13;3.93;;;;;;;;;;5052353;28;20471;-66
2023/02/07 02:26:46;;;;;;;5.60;4.13;;;;;;;;;;5051217;28;20447;-66
2023/02/07 02:29:40;;;;;;;12.13;5.90;;;;;;;;;;5045758;28;20454;-66
2023/02/07 02:32:20;;;;;;;8.80;3.80;;;;;;;;;;5052231;28;20480;-67
2023/02/07 02:34:52;;;;;;;4.37;3.97;;;;;;;;;;5051821;28;20454;-66
2023/02/07 02:37:25;;;;;;;5.37;3.80;;;;;;;;;;5051068;28;20454;-67
2023/02/07 02:39:54;;;;;;;3.00;2.40;;;;;;;;;;5052167;28;20468;-67
2023/02/07 02:42:27;;;;;;;4.60;2.83;;;;;;;;;;5051593;28;20449;-67
2023/02/07 02:44:55;;;;;;;6.03;4.73;;;;;;;;;;5051574;28;20464;-67
2023/02/07 02:47:23;;;;;;;6.23;5.30;;;;;;;;;;5051681;28;20451;-67
2023/02/07 02:49:51;;;;;;;5.40;3.63;;;;;;;;;;5051606;28;20970;-67
2023/02/07 02:52:18;;;;;;;6.53;4.90;;;;;;;;;;5051024;28;20491;-67
2023/02/07 02:54:45;;;;;;;6.40;4.30;;;;;;;;;;5051033;28;20450;-67
2023/02/07 02:57:29;;;;;;;4.10;2.40;;;;;;;;;;5051610;28;20960;-67
2023/02/07 03:00:07;;;;;;;4.67;3.23;;;;;;;;;;5049903;28;20564;-66
2023/02/07 03:02:40;;;;;;;6.93;5.20;;;;;;;;;;5051173;28;20540;-67
2023/02/07 03:05:13;;;;;;;5.47;3.60;;;;;;;;;;5040530;28;20449;-67
2023/02/07 03:07:44;;;;;;;5.40;4.10;;;;;;;;;;5050787;28;20458;-66
2023/02/07 03:10:16;;;;;;;4.57;3.70;;;;;;;;;;5048349;28;20453;-67
2023/02/07 03:12:46;;;;;;;5.27;3.90;;;;;;;;;;5051314;28;20470;-66
2023/02/07 03:15:17;;;;;;;16.03;4.97;;;;;;;;;;5050430;28;20448;-67
2023/02/07 03:17:50;;;;;;;5.13;3.40;;;;;;;;;;5038050;28;20444;-67
2023/02/07 03:20:21;;;;;;;5.60;4.87;;;;;;;;;;5050289;28;20464;-68
2023/02/07 03:22:49;;;;;;;7.60;4.37;;;;;;;;;;5051231;28;20442;-67
2023/02/07 03:25:16;;;;;;;5.83;5.30;;;;;;;;;;5050206;28;20450;-67
2023/02/07 03:27:45;;;;;;;8.50;4.13;;;;;;;;;;5050966;28;20454;-66
2023/02/07 03:30:14;;;;;;;8.60;4.10;;;;;;;;;;5050729;28;20450;-66
2023/02/07 03:32:42;;;;;;;8.57;5.40;;;;;;;;;;5051018;28;20517;-67
2023/02/07 03:35:10;;;;;;;6.73;6.07;;;;;;;;;;5051004;28;20805;-67
2023/02/07 03:37:41;;;;;;;4.37;3.97;;;;;;;;;;5050593;28;20469;-66
2023/02/07 03:40:09;;;;;;;7.47;4.23;;;;;;;;;;5051569;28;20446;-67
2023/02/07 03:42:38;;;;;;;5.13;3.77;;;;;;;;;;5050422;28;20446;-67
2023/02/07 03:45:08;;;;;;;6.43;4.13;;;;;;;;;;5050693;28;20457;-66
2023/02/07 03:47:35;;;;;;;8.23;4.80;;;;;;;;;;5050568;28;20476;-66
2023/02/07 03:50:02;;;;;;;4.40;3.83;;;;;;;;;;5050808;28;21000;-67
2023/02/07 03:52:29;;;;;;;6.90;5.37;;;;;;;;;;5050006;28;20522;-66
2023/02/07 03:54:58;;;;;;;4.37;3.97;;;;;;;;;;5050668;28;20458;-68
2023/02/07 03:57:25;;;;;;;6.57;4.97;;;;;;;;;;5050158;28;20972;-66
2023/02/07 03:59:52;;;;;;;8.07;5.10;;;;;;;;;;5054354;28;20446;-67
2023/02/07 04:02:19;;;;;;;10.00;4.87;;;;;;;;;;5050401;28;20458;-67
2023/02/07 04:04:46;;;;;;;7.07;5.50;;;;;;;;;;5050697;28;20457;-67
2023/02/07 04:07:13;;;;;;;5.90;4.37;;;;;;;;;;5050126;28;20793;-67
2023/02/07 04:09:41;;;;;;;7.00;6.20;;;;;;;;;;5050409;28;20489;-67
2023/02/07 04:12:09;;;;;;;9.43;5.67;;;;;;;;;;5050821;28;20489;-67
2023/02/07 04:14:36;;;;;;;3.13;2.83;;;;;;;;;;5049844;28;20456;-67
2023/02/07 04:17:03;;;;;;;4.83;4.33;;;;;;;;;;5050699;28;20822;-67
2023/02/07 04:19:31;;;;;;;6.30;4.40;;;;;;;;;;5049965;28;20551;-67
2023/02/07 04:21:58;;;;;;;6.70;5.70;;;;;;;;;;5050683;28;20450;-67
2023/02/07 04:24:25;;;;;;;7.87;5.67;;;;;;;;;;5049914;28;20810;-66
2023/02/07 04:26:52;;;;;;;7.87;5.50;;;;;;;;;;5050393;28;20449;-67
2023/02/07 04:29:20;;;;;;;4.00;3.70;;;;;;;;;;5050131;28;20453;-67
2023/02/07 04:31:47;;;;;;;11.93;5.37;;;;;;;;;;5050623;28;20497;-67
2023/02/07 04:34:15;;;;;;;7.67;5.23;;;;;;;;;;5049890;28;20459;-67
2023/02/07 04:36:42;;;;;;;8.43;4.37;;;;;;;;;;5050871;28;20806;-67
2023/02/07 04:39:09;;;;;;;8.90;4.83;;;;;;;;;;5050928;28;20553;-66
2023/02/07 04:41:36;;;;;;;5.27;3.93;;;;;;;;;;5049626;28;20467;-66
2023/02/07 04:44:03;;;;;;;6.57;4.03;;;;;;;;;;5050864;28;20540;-66
2023/02/07 04:46:33;;;;;;;5.57;4.13;;;;;;;;;;5049619;28;20458;-66
2023/02/07 04:49:00;;;;;;;5.97;4.80;;;;;;;;;;5049731;28;20446;-66
2023/02/07 04:51:27;;;;;;;5.10;4.50;;;;;;;;;;5050053;28;20482;-67
2023/02/07 04:53:55;;;;;;;5.63;3.17;;;;;;;;;;5050313;28;20446;-67
2023/02/07 04:56:22;;;;;;;6.33;3.93;;;;;;;;;;5049159;28;20449;-67
2023/02/07 04:58:49;;;;;;;3.87;3.50;;;;;;;;;;5050689;28;20446;-67
2023/02/07 05:01:16;;;;;;;7.63;4.93;;;;;;;;;;5049806;28;20472;-67
2023/02/07 05:03:45;;;;;;;3.97;3.67;;;;;;;;;;5050604;28;20456;-67
2023/02/07 05:06:13;;;;;;;5.47;3.77;;;;;;;;;;5049196;28;20464;-66
2023/02/07 05:08:40;;;;;;;6.57;5.27;;;;;;;;;;5050360;28;20527;-67
2023/02/07 05:11:07;;;;;;;8.33;6.43;;;;;;;;;;5049771;28;20449;-67
2023/02/07 05:13:34;;;;;;;7.20;4.00;;;;;;;;;;5049834;28;20491;-67
2023/02/07 05:16:03;;;;;;;4.30;3.80;;;;;;;;;;5049539;28;20450;-67
2023/02/07 05:18:30;;;;;;;7.20;4.73;;;;;;;;;;5050338;28;20446;-67
2023/02/07 05:20:58;;;;;;;6.80;3.40;;;;;;;;;;5054008;28;20449;-67
2023/02/07 05:23:26;;;;;;;4.37;3.97;;;;;;;;;;5053332;28;20453;-67
2023/02/07 05:25:53;;;;;;;5.80;3.37;;;;;;;;;;5053230;28;20453;-67
2023/02/07 05:28:20;;;;;;;6.70;4.47;;;;;;;;;;5052960;28;20444;-67
2023/02/07 05:30:47;;;;;;;8.30;4.13;;;;;;;;;;5053272;28;20942;-67
2023/02/07 05:33:13;;;;;;;9.37;5.20;;;;;;;;;;5052666;28;20481;-66
2023/02/07 05:35:41;;;;;;;5.77;4.57;;;;;;;;;;5053177;28;20511;-66
2023/02/07 05:38:10;;;;;;;3.87;3.57;;;;;;;;;;5053420;28;20457;-66
2023/02/07 05:40:38;;;;;;;5.47;4.37;;;;;;;;;;5054126;28;20456;-66
2023/02/07 05:43:05;;;;;;;3.87;3.57;;;;;;;;;;5053333;28;20874;-66
2023/02/07 05:45:32;;;;;;;5.50;4.13;;;;;;;;;;5052258;28;20711;-66
2023/02/07 05:48:00;;;;;;;10.53;5.20;;;;;;;;;;5052865;28;20453;-66
2023/02/07 05:50:27;;;;;;;6.47;5.13;;;;;;;;;;5052415;28;20446;-67
2023/02/07 05:52:54;;;;;;;5.57;3.57;;;;;;;;;;5052877;28;20488;-67
2023/02/07 05:55:23;;;;;;;7.57;4.33;;;;;;;;;;5052124;28;20797;-66
2023/02/07 05:57:50;;;;;;;5.97;4.20;;;;;;;;;;5053204;28;20457;-67
2023/02/07 06:00:19;;;;;;;5.73;4.33;;;;;;;;;;5051313;28;20449;-69
2023/02/07 06:02:46;;;;;;;13.73;5.00;;;;;;;;;;5052201;28;20534;-68
2023/02/07 06:05:14;;;;;;;8.37;4.57;;;;;;;;;;5052648;28;20528;-66
2023/02/07 06:07:41;;;;;;;5.87;4.10;;;;;;;;;;5052521;28;20544;-66
2023/02/07 06:10:08;;;;;;;7.37;3.90;;;;;;;;;;5052868;28;20451;-67
2023/02/07 06:12:37;;;;;;;6.03;4.40;;;;;;;;;;5051852;28;20484;-67
2023/02/07 06:15:04;;;;;;;4.73;4.33;;;;;;;;;;5052356;28;20452;-68
2023/02/07 06:17:31;;;;;;;5.40;3.77;;;;;;;;;;5051554;28;20464;-71
2023/02/07 06:19:59;;;;;;;4.20;3.80;;;;;;;;;;5052542;28;20450;-70
2023/02/07 06:22:26;;;;;;;2.80;2.60;;;;;;;;;;5052099;28;20445;-71
2023/02/07 06:24:53;;;;;;;4.80;3.43;;;;;;;;;;5052643;28;20450;-71
2023/02/07 06:27:20;;;;;;;4.07;3.77;;;;;;;;;;5051775;28;20809;-68
2023/02/07 06:29:48;;;;;;;6.10;5.17;;;;;;;;;;5052132;28;20549;-68
2023/02/07 06:32:16;;;;;;;4.53;2.83;;;;;;;;;;5038404;28;20492;-67
2023/02/07 06:34:43;;;;;;;3.70;3.40;;;;;;;;;;5051906;28;20499;-70
2023/02/07 06:37:10;;;;;;;2.90;2.67;;;;;;;;;;5052290;28;20456;-71
2023/02/07 06:39:37;;;;;;;6.47;3.90;;;;;;;;;;5051246;28;20449;-70
2023/02/07 06:42:04;;;;;;;7.77;3.43;;;;;;;;;;5052553;28;20549;-71
2023/02/07 06:44:32;;;;;;;4.07;3.60;;;;;;;;;;5050746;28;20449;-70
2023/02/07 06:47:00;;;;;;;4.83;2.80;;;;;;;;;;5051106;28;20469;-72
2023/02/07 06:49:27;;;;;;;2.90;2.27;;;;;;;;;;5051391;28;20456;-70
2023/02/07 06:51:54;;;;;;;5.50;3.43;;;;;;;;;;5052385;28;20457;-70
2023/02/07 06:54:22;;;;;;;6.03;4.63;;;;;;;;;;5051534;28;20499;-70
2023/02/07 06:56:49;;;;;;;4.30;2.93;;;;;;;;;;5051563;28;20460;-70
2023/02/07 06:59:16;;;;;;;6.80;4.23;;;;;;;;;;5051451;28;20475;-70
2023/02/07 07:01:43;;;;;;;4.13;3.73;;;;;;;;;;5052016;28;20453;-69
2023/02/07 07:04:11;;;;;;;5.63;3.30;;;;;;;;;;5051842;28;20957;-70
2023/02/07 07:06:38;;;;;;;4.40;3.23;;;;;;;;;;5050937;28;20452;-70
2023/02/07 07:09:06;;;;;;;5.00;3.40;;;;;;;;;;5051596;28;20479;-70
2023/02/07 07:11:33;;;;;;;6.47;4.90;;;;;;;;;;5050793;28;21076;-70
2023/02/07 07:14:01;;;;;;;5.00;4.60;;;;;;;;;;5051360;28;20485;-70
2023/02/07 07:16:28;;;;;;;5.43;3.87;;;;;;;;;;5050484;28;20783;-70
2023/02/07 07:18:55;;;;;;;4.47;3.73;;;;;;;;;;5050880;28;20461;-70
2023/02/07 07:21:26;;;;;;;6.90;2.53;;;;;;;;;;5050948;28;20464;-70
2023/02/07 07:23:53;;;;;;;5.40;4.90;;;;;;;;;;5051470;28;20442;-70
2023/02/07 07:26:21;;;;;;;3.53;2.90;;;;;;;;;;5050436;28;20648;-70
2023/02/07 07:28:48;;;;;;;4.43;2.47;;;;;;;;;;5050927;28;20458;-70
2023/02/07 07:31:15;;;;;;;6.57;3.97;;;;;;;;;;5050595;28;20536;-70
2023/02/07 07:33:42;;;;;;;6.00;4.50;;;;;;;;;;5051210;28;20997;-69
2023/02/07 07:36:10;;;;;;;5.00;3.60;;;;;;;;;;5051630;28;20450;-70
2023/02/07 07:38:38;;;;;;;5.10;3.10;;;;;;;;;;5050156;28;20465;-71
2023/02/07 07:41:05;;;;;;;4.17;3.77;;;;;;;;;;5050788;28;20464;-70
2023/02/07 07:43:32;;;;;;;6.23;3.97;;;;;;;;;;5050021;28;21090;-70
2023/02/07 07:46:00;;;;;;;6.10;3.70;;;;;;;;;;5051020;28;20442;-70
2023/02/07 07:48:27;;;;;;;4.63;3.60;;;;;;;;;;5049827;28;20540;-70
2023/02/07 07:50:54;;;;;;;11.83;4.97;;;;;;;;;;5051084;28;20446;-70
2023/02/07 07:53:21;;;;;;;10.10;3.23;;;;;;;;;;5050027;28;20500;-70
2023/02/07 07:55:53;;;;;;;10.37;4.20;;;;;;;;;;5051135;28;20540;-70
2023/02/07 07:58:21;;;;;;;3.30;2.77;;;;;;;;;;5049846;28;20464;-70
2023/02/07 08:00:49;;;;;;;3.10;2.90;;;;;;;;;;5050687;28;20442;-70
2023/02/07 08:03:16;;;;;;;4.07;2.80;;;;;;;;;;5050409;28;20485;-68
2023/02/07 08:05:44;;;;;;;4.40;3.47;;;;;;;;;;5050479;28;20458;-70
2023/02/07 08:08:11;;;;;;;5.53;3.23;;;;;;;;;;5050466;28;20969;-70
2023/02/07 08:10:39;;;;;;;5.73;3.90;;;;;;;;;;5050661;28;20464;-70
2023/02/07 08:13:09;;;;;;;4.30;2.93;;;;;;;;;;5051012;28;20573;-71
2023/02/07 08:15:36;;;;;;;7.43;4.00;;;;;;;;;;5050045;28;20446;-71
2023/02/07 08:18:03;;;;;;;6.47;4.00;;;;;;;;;;5050324;28;20950;-70
2023/02/07 08:20:30;;;;;;;4.50;3.60;;;;;;;;;;5049921;28;20450;-71
2023/02/07 08:22:57;;;;;;;6.43;4.20;;;;;;;;;;5050968;28;20458;-71
2023/02/07 08:25:25;;;;;;;10.30;5.40;;;;;;;;;;5049846;28;20460;-71
2023/02/07 08:27:52;;;;;;;5.40;4.90;;;;;;;;;;5050206;28;20506;-70
2023/02/07 08:30:21;;;;;;;16.63;3.97;;;;;;;;;;5049828;28;20452;-71
2023/02/07 08:32:50;;;;;;;7.33;4.10;;;;;;;;;;5050367;28;20491;-70
2023/02/07 08:35:17;;;;;;;6.40;4.33;;;;;;;;;;5050218;28;20446;-70
2023/02/07 08:37:44;;;;;;;5.30;4.30;;;;;;;;;;5050486;28;20450;-70
2023/02/07 08:40:12;;;;;;;7.23;5.20;;;;;;;;;;5050500;28;20457;-71
2023/02/07 08:42:40;;;;;;;4.23;2.73;;;;;;;;;;5050688;28;20446;-71
2023/02/07 08:45:07;;;;;;;6.87;4.80;;;;;;;;;;5050522;28;20450;-71
2023/02/07 08:47:35;;;;;;;4.90;3.37;;;;;;;;;;5049478;28;20448;-71
2023/02/07 08:50:03;;;;;;;6.67;4.80;;;;;;;;;;5050366;28;21187;-71
2023/02/07 08:52:30;;;;;;;4.93;3.10;;;;;;;;;;5050664;28;20453;-71
2023/02/07 08:54:57;;;;;;;3.93;3.63;;;;;;;;;;5054011;28;20458;-71
2023/02/07 08:57:24;;;;;;;6.43;5.23;;;;;;;;;;5053208;28;20455;-70
2023/02/07 08:59:51;;;;;;;5.53;4.47;;;;;;;;;;5054185;28;20855;-71
2023/02/07 09:02:18;;;;;;;10.63;5.00;;;;;;;;;;5053056;28;20996;-70
2023/02/07 09:04:47;;;;;;;5.33;4.20;;;;;;;;;;5053949;28;20448;-71
2023/02/07 09:07:14;;;;;;;6.30;3.60;;;;;;;;;;5052774;28;20562;-69
2023/02/07 09:09:41;;;;;;;4.63;4.23;;;;;;;;;;5054533;28;21092;-70
2023/02/07 09:12:09;;;;;;;6.83;4.43;;;;;;;;;;5054273;28;20446;-70
2023/02/07 09:14:36;;;;;;;8.23;4.37;;;;;;;;;;5053460;28;20482;-71
2023/02/07 09:17:04;;;;;;;4.27;3.57;;;;;;;;;;5053510;28;20450;-71
2023/02/07 09:19:31;;;;;;;5.20;3.73;;;;;;;;;;5053393;28;20943;-71
2023/02/07 09:21:59;;;;;;;9.50;4.40;;;;;;;;;;5053720;28;20454;-71
2023/02/07 09:24:26;;;;;;;6.13;4.03;;;;;;;;;;5053388;28;20450;-71
2023/02/07 09:26:53;;;;;;;3.73;3.07;;;;;;;;;;5053194;28;20969;-70
2023/02/07 09:29:20;;;;;;;4.73;3.57;;;;;;;;;;5053313;28;20448;-71
2023/02/07 09:31:48;;;;;;;7.73;3.87;;;;;;;;;;5053232;28;20456;-70
2023/02/07 09:34:15;;;;;;;5.50;3.70;;;;;;;;;;5053148;28;20482;-70
2023/02/07 09:36:44;;;;;;;5.53;2.93;;;;;;;;;;5053517;28;20457;-70
2023/02/07 09:39:12;;;;;;;4.13;2.60;;;;;;;;;;5054320;28;20461;-70
2023/02/07 09:41:42;;;;;;;6.33;4.87;;;;;;;;;;5053328;28;20453;-71
2023/02/07 09:44:15;;;;;;;7.33;5.00;;;;;;;;;;5053564;28;20446;-71
2023/02/07 09:46:45;;;;;;;5.50;4.20;;;;;;;;;;5052963;28;20454;-70
2023/02/07 09:49:16;;;;;;;7.73;3.90;;;;;;;;;;5053321;28;20537;-71
2023/02/07 09:51:44;;;;;;;5.57;4.63;;;;;;;;;;5053344;28;20517;-70
2023/02/07 09:54:19;;;;;;;8.70;3.37;;;;;;;;;;5053503;28;20482;-70
2023/02/07 09:56:47;;;;;;;9.43;4.37;;;;;;;;;;5053181;28;20457;-71
2023/02/07 09:59:19;;;;;;;4.77;3.47;;;;;;;;;;5052911;28;20453;-68
2023/02/07 10:01:48;;;;;;;5.40;3.90;;;;;;;;;;5052781;28;20958;-70
2023/02/07 10:04:26;;;;;;;4.57;3.60;;;;;;;;;;5051810;28;20973;-68
2023/02/07 10:06:55;;;;;;;7.97;4.83;;;;;;;;;;5053256;28;20800;-71
2023/02/07 10:09:25;;;;;;;5.73;3.03;;;;;;;;;;5052435;28;20986;-71
2023/02/07 10:11:55;;;;;;;4.50;3.53;;;;;;;;;;5053201;28;20834;-71
2023/02/07 10:14:27;;;;;;;6.13;4.87;;;;;;;;;;5052251;28;20489;-71
2023/02/07 10:17:02;;;;;;;7.90;4.00;;;;;;;;;;5052280;28;20951;-70
2023/02/07 10:19:35;;;;;;;7.90;4.23;;;;;;;;;;5052479;28;20858;-71
2023/02/07 10:22:09;;;;;;;6.63;4.93;;;;;;;;;;5053013;28;20452;-71
2023/02/07 10:24:50;;;;;;;6.50;4.40;;;;;;;;;;5052088;28;20466;-71
2023/02/07 10:27:23;;;;;;;6.30;3.50;;;;;;;;;;5052061;28;20457;-70
2023/02/07 10:29:55;;;;;;;5.50;4.10;;;;;;;;;;5052711;28;20447;-71
2023/02/07 10:32:23;;;;;;;8.33;3.87;;;;;;;;;;5052243;28;20458;-71
2023/02/07 10:34:51;;;;;;;7.10;4.07;;;;;;;;;;5052329;28;20512;-71
2023/02/07 10:37:19;;;;;;;6.53;3.87;;;;;;;;;;5051731;28;20546;-70
2023/02/07 10:39:51;;;;;;;7.67;3.80;;;;;;;;;;5053280;28;20508;-70
2023/02/07 10:42:19;;;;;;;11.43;5.13;;;;;;;;;;5051919;28;20808;-70
2023/02/07 10:44:46;;;;;;;12.90;4.93;;;;;;;;;;5052313;28;20458;-70
2023/02/07 10:47:15;;;;;;;5.67;4.70;;;;;;;;;;5051702;28;20452;-68
2023/02/07 10:49:42;;;;;;;8.77;4.67;;;;;;;;;;5052019;28;20529;-71
2023/02/07 10:52:15;;;;;;;4.90;4.40;;;;;;;;;;5052478;28;20450;-71
2023/02/07 10:54:51;;;;;;;4.87;4.43;;;;;;;;;;5052452;28;20481;-71
2023/02/07 10:57:19;;;;;;;5.07;4.63;;;;;;;;;;5051156;28;20446;-70
2023/02/07 10:59:48;;;;;;;18.27;5.83;;;;;;;;;;5051836;28;20451;-70
2023/02/07 11:02:43;;;;;;;7.90;4.57;;;;;;;;;;5051584;28;20446;-69
2023/02/07 11:05:25;;;;;;;5.90;4.53;;;;;;;;;;5017298;28;20462;-71
2023/02/07 11:07:57;;;;;;;7.23;5.53;;;;;;;;;;5051378;28;20827;-72
2023/02/07 11:10:27;;;;;;;7.53;5.00;;;;;;;;;;5051750;28;20453;-71
2023/02/07 11:12:55;;;;;;;10.53;3.90;;;;;;;;;;5052210;28;20454;-71
2023/02/07 11:15:25;;;;;;;10.20;4.73;;;;;;;;;;5050573;28;20492;-70
2023/02/07 11:17:53;;;;;;;8.73;4.20;;;;;;;;;;5051079;28;20458;-70
2023/02/07 11:20:27;;;;;;;6.30;4.20;;;;;;;;;;5051399;28;20787;-70
2023/02/07 11:22:55;;;;;;;7.03;4.90;;;;;;;;;;5052009;28;20503;-71
2023/02/07 11:25:29;;;;;;;7.70;4.90;;;;;;;;;;5050972;28;20465;-71
2023/02/07 11:27:57;;;;;;;9.47;4.80;;;;;;;;;;5051277;28;20442;-70
2023/02/07 11:30:24;;;;;;;4.70;3.60;;;;;;;;;;5051248;28;20818;-71
2023/02/07 11:32:56;;;;;;;7.43;4.30;;;;;;;;;;5051641;28;20823;-71
2023/02/07 11:35:23;;;;;;;3.77;3.47;;;;;;;;;;5051130;28;20485;-70
2023/02/07 11:37:59;;;;;;;12.37;5.30;;;;;;;;;;5050863;28;20458;-71
2023/02/07 11:40:30;;;;;;;10.60;4.50;;;;;;;;;;5050898;28;20441;-70
2023/02/07 11:42:58;;;;;;;7.00;5.37;;;;;;;;;;5051540;28;20443;-71
2023/02/07 11:45:26;;;;;;;8.13;5.77;;;;;;;;;;5050752;28;20454;-71
2023/02/07 11:47:55;;;;;;;6.53;4.77;;;;;;;;;;5050394;28;20458;-71
2023/02/07 11:50:25;;;;;;;7.90;4.77;;;;;;;;;;5050520;28;20457;-71
2023/02/07 11:52:53;;;;;;;8.13;4.70;;;;;;;;;;5051065;28;20450;-71
2023/02/07 11:55:22;;;;;;;6.60;4.90;;;;;;;;;;5050297;28;20518;-70
2023/02/07 11:57:50;;;;;;;5.60;5.00;;;;;;;;;;5050625;28;20465;-71
2023/02/07 12:00:20;;;;;;;6.60;3.77;;;;;;;;;;5050378;28;20453;-70
2023/02/07 12:02:51;;;;;;;8.33;5.00;;;;;;;;;;5050860;28;20468;-71
2023/02/07 12:05:20;;;;;;;9.33;5.67;;;;;;;;;;5050423;28;20450;-71
2023/02/07 12:07:49;;;;;;;5.80;4.43;;;;;;;;;;5050451;28;20811;-71
2023/02/07 12:10:16;;;;;;;5.23;4.60;;;;;;;;;;5050329;28;20461;-70
2023/02/07 12:12:45;;;;;;;5.27;4.80;;;;;;;;;;5051179;28;20449;-71
2023/02/07 12:15:15;;;;;;;4.20;3.53;;;;;;;;;;5051248;28;20490;-69
2023/02/07 12:17:48;;;;;;;9.70;3.53;;;;;;;;;;5037080;28;20817;-70
2023/02/07 12:20:22;;;;;;;5.90;4.87;;;;;;;;;;5049863;28;20460;-71
2023/02/07 12:22:53;;;;;;;10.87;4.83;;;;;;;;;;5051064;28;20438;-71
2023/02/07 12:25:21;;;;;;;6.00;4.73;;;;;;;;;;5050067;28;20450;-71
2023/02/07 12:27:50;;;;;;;5.80;3.57;;;;;;;;;;5052113;28;20446;-71
2023/02/07 12:30:22;;;;;;;10.80;6.40;;;;;;;;;;5053881;28;20461;-70
2023/02/07 12:32:52;;;;;;;9.00;4.70;;;;;;;;;;5054799;28;20453;-71
2023/02/07 12:35:23;;;;;;;5.00;4.30;;;;;;;;;;5053916;28;20581;-71
2023/02/07 12:37:54;;;;;;;10.50;4.53;;;;;;;;;;5054567;28;20507;-71
2023/02/07 12:40:25;;;;;;;6.33;4.43;;;;;;;;;;5053973;28;20464;-71
2023/02/07 12:42:56;;;;;;;7.23;5.33;;;;;;;;;;5054875;28;20796;-71
2023/02/07 12:45:31;;;;;;;8.53;4.97;;;;;;;;;;5054104;28;20484;-71
2023/02/07 12:48:04;;;;;;;6.97;4.07;;;;;;;;;;5054094;28;20454;-71
2023/02/07 12:50:41;;;;;;;4.60;4.20;;;;;;;;;;5053989;28;20504;-71
2023/02/07 12:53:16;;;;;;;7.07;4.70;;;;;;;;;;5054536;28;20441;-71
2023/02/07 12:55:48;;;;;;;10.43;3.50;;;;;;;;;;5054501;28;20470;-70
2023/02/07 12:58:24;;;;;;;4.10;3.63;;;;;;;;;;5053595;28;20540;-69
2023/02/07 13:00:57;;;;;;;4.37;3.40;;;;;;;;;;5054302;28;20441;-71
2023/02/07 13:03:31;;;;;;;5.33;3.53;;;;;;;;;;5053607;28;20442;-71
2023/02/07 13:06:02;;;;;;;8.53;3.97;;;;;;;;;;5053923;28;20542;-71
2023/02/07 13:08:33;;;;;;;5.10;3.97;;;;;;;;;;5053441;28;20508;-71
2023/02/07 13:11:04;;;;;;;5.83;4.43;;;;;;;;;;5054035;28;20446;-71
2023/02/07 13:13:33;;;;;;;4.30;3.57;;;;;;;;;;5053942;28;20530;-71
2023/02/07 13:16:05;;;;;;;4.37;2.70;;;;;;;;;;5053587;28;20486;-71
2023/02/07 13:18:37;;;;;;;8.57;4.10;;;;;;;;;;5053697;28;20791;-71
2023/02/07 13:21:09;;;;;;;6.57;3.40;;;;;;;;;;5054114;28;20990;-71
2023/02/07 13:23:37;;;;;;;5.13;4.27;;;;;;;;;;5053617;28;20438;-71
2023/02/07 13:26:06;;;;;;;5.50;3.20;;;;;;;;;;5053149;28;20449;-71
2023/02/07 13:28:37;;;;;;;6.17;3.77;;;;;;;;;;5053294;28;21070;-72
2023/02/07 13:31:05;;;;;;;7.03;4.53;;;;;;;;;;5053618;28;20451;-71
2023/02/07 13:33:34;;;;;;;9.53;3.87;;;;;;;;;;5052988;28;20450;-71
2023/02/07 13:36:05;;;;;;;6.10;3.60;;;;;;;;;;5053004;28;20478;-71
2023/02/07 13:38:47;;;;;;;6.10;3.83;;;;;;;;;;5052294;28;20690;-70
2023/02/07 13:41:18;;;;;;;7.20;3.73;;;;;;;;;;5053389;28;20457;-68
2023/02/07 13:43:53;;;;;;;7.60;4.53;;;;;;;;;;5053562;28;20454;-71
2023/02/07 13:46:27;;;;;;;5.53;3.60;;;;;;;;;;5052087;28;20449;-70
2023/02/07 13:48:57;;;;;;;4.80;3.77;;;;;;;;;;5053560;28;20442;-71
2023/02/07 13:51:28;;;;;;;5.63;3.93;;;;;;;;;;5052432;28;20442;-70
2023/02/07 13:53:59;;;;;;;4.70;3.70;;;;;;;;;;5052987;28;20473;-70
2023/02/07 13:59:41;;;;;;;6.07;3.73;;;;;;;;;;5052280;28;20418;-68
2023/02/07 14:02:15;;;;;;;4.30;3.77;;;;;;;;;;5052739;28;20471;-70
2023/02/07 14:04:50;;;;;;;4.37;3.80;;;;;;;;;;5053144;28;20553;-70
2023/02/07 14:07:22;;;;;;;4.13;3.50;;;;;;;;;;5051744;28;20445;-70
2023/02/07 14:09:49;;;;;;;4.17;3.20;;;;;;;;;;5052921;28;20539;-71
2023/02/07 14:12:19;;;;;;;7.03;3.97;;;;;;;;;;5052428;28;20442;-70
2023/02/07 14:14:46;;;;;;;5.80;3.73;;;;;;;;;;5052982;28;21135;-70
2023/02/07 14:17:15;;;;;;;3.33;2.60;;;;;;;;;;5052040;28;20460;-68
2023/02/07 14:19:50;;;;;;;6.60;3.50;;;;;;;;;;5053222;28;20446;-69
2023/02/07 14:22:18;;;;;;;5.20;3.00;;;;;;;;;;5053989;28;20453;-70
2023/02/07 14:24:49;;;;;;;5.90;4.00;;;;;;;;;;5053085;28;20453;-70
2023/02/07 14:27:27;;;;;;;6.50;4.43;;;;;;;;;;5051763;28;20451;-68
2023/02/07 14:30:09;;;;;;;4.90;3.97;;;;;;;;;;5052583;28;20454;-71
2023/02/07 14:32:42;;;;;;;6.47;4.00;;;;;;;;;;5049403;28;20469;-71
2023/02/07 14:35:28;;;;;;;7.27;4.40;;;;;;;;;;5052958;28;20485;-72
2023/02/07 14:38:00;;;;;;;5.17;2.70;;;;;;;;;;5052003;28;20458;-71
2023/02/07 14:40:31;;;;;;;6.33;4.03;;;;;;;;;;5051502;28;20462;-73
2023/02/07 14:42:59;;;;;;;4.60;4.20;;;;;;;;;;5052298;28;20434;-73
2023/02/07 14:45:29;;;;;;;8.00;4.20;;;;;;;;;;5051552;28;20446;-72
2023/02/07 14:47:57;;;;;;;5.20;4.33;;;;;;;;;;5051591;28;20454;-70
2023/02/07 14:50:29;;;;;;;5.37;3.00;;;;;;;;;;5051275;28;20450;-71
2023/02/07 14:52:56;;;;;;;7.50;3.80;;;;;;;;;;5051920;28;20438;-70
2023/02/07 14:55:28;;;;;;;5.50;3.60;;;;;;;;;;5051543;28;20794;-71
2023/02/07 14:57:58;;;;;;;6.87;4.07;;;;;;;;;;5051382;28;20450;-71